createdAt,value
2018-08-28T00:00:50.702Z,22.37
2018-08-28T00:03:32.231Z,26.30
2018-08-28T00:06:12.734Z,21.70
2018-08-28T00:08:53.409Z,25.33
2018-08-28T00:11:35.151Z,28.77
2018-08-28T00:14:16.569Z,21.43
2018-08-28T00:16:57.300Z,24.97
2018-08-28T00:19:38.242Z,32.63
2018-08-28T00:22:19.780Z,23.83
2018-08-28T00:25:00.317Z,35.80
2018-08-28T00:27:41.237Z,42.40
2018-08-28T00:30:22.702Z,43.80
2018-08-28T00:33:04.152Z,29.63
2018-08-28T00:35:45.342Z,25.10
2018-08-28T00:38:26.205Z,40.80
2018-08-28T00:41:06.838Z,25.90
2018-08-28T00:43:47.425Z,29.03
2018-08-28T00:46:27.966Z,33.93
2018-08-28T00:49:08.798Z,28.10
2018-08-28T00:51:49.331Z,30.10
2018-08-28T00:54:29.993Z,28.17
2018-08-28T00:57:10.530Z,37.47
2018-08-28T00:59:51.127Z,39.93
2018-08-28T01:02:31.684Z,27.27
2018-08-28T01:05:13.163Z,31.03
2018-08-28T01:07:54.377Z,33.63
2018-08-28T01:10:35.485Z,40.30
2018-08-28T01:13:16.908Z,32.80
2018-08-28T01:15:57.445Z,37.63
2018-08-28T01:18:37.983Z,34.00
2018-08-28T01:21:18.596Z,31.37
2018-08-28T01:23:59.313Z,27.00
2018-08-28T01:26:39.822Z,25.23
2018-08-28T01:29:20.424Z,32.43
2018-08-28T01:32:01.248Z,31.80
2018-08-28T01:34:42.722Z,39.77
2018-08-28T01:37:23.786Z,31.83
2018-08-28T01:40:04.644Z,33.97
2018-08-28T01:42:45.231Z,45.93
2018-08-28T01:45:25.944Z,36.97
2018-08-28T01:48:07.485Z,28.00
2018-08-28T01:50:49.113Z,37.70
2018-08-28T01:53:29.901Z,30.23
2018-08-28T01:56:11.360Z,45.20
2018-08-28T01:58:52.093Z,29.67
2018-08-28T02:01:33.605Z,40.10
2018-08-28T02:04:15.099Z,40.40
2018-08-28T02:06:56.563Z,33.57
2018-08-28T02:09:37.173Z,40.20
2018-08-28T02:12:18.721Z,27.77
2018-08-28T02:15:00.224Z,32.93
2018-08-28T02:17:41.690Z,30.80
2018-08-28T02:20:22.350Z,53.63
2018-08-28T02:23:03.897Z,39.90
2018-08-28T02:25:45.441Z,26.10
2018-08-28T02:28:26.121Z,31.23
2018-08-28T02:31:06.671Z,33.30
2018-08-28T02:33:47.617Z,31.20
2018-08-28T02:36:28.154Z,25.37
2018-08-28T02:39:10.025Z,27.40
2018-08-28T02:41:51.226Z,28.43
2018-08-28T02:44:31.828Z,25.83
2018-08-28T02:47:13.291Z,23.07
2018-08-28T02:49:53.837Z,23.90
2018-08-28T02:52:34.332Z,20.63
2018-08-28T02:55:15.034Z,22.13
2018-08-28T02:57:55.533Z,32.57
2018-08-28T03:00:36.249Z,20.13
2018-08-28T03:03:16.885Z,30.90
2018-08-28T03:05:57.373Z,28.90
2018-08-28T03:08:37.968Z,33.07
2018-08-28T03:11:18.641Z,27.97
2018-08-28T03:13:59.300Z,21.93
2018-08-28T03:16:39.814Z,31.47
2018-08-28T03:19:21.134Z,31.23
2018-08-28T03:22:02.097Z,25.13
2018-08-28T03:24:43.483Z,24.20
2018-08-28T03:27:24.215Z,17.03
2018-08-28T03:30:05.790Z,29.77
2018-08-28T03:32:46.417Z,17.67
2018-08-28T03:35:28.009Z,17.87
2018-08-28T03:38:09.558Z,23.33
2018-08-28T03:40:50.106Z,20.53
2018-08-28T03:43:30.641Z,19.47
2018-08-28T03:46:11.317Z,21.73
2018-08-28T03:48:51.870Z,19.20
2018-08-28T03:51:33.306Z,19.47
2018-08-28T03:54:13.909Z,20.80
2018-08-28T03:56:54.475Z,16.07
2018-08-28T03:59:35.285Z,21.87
2018-08-28T04:02:16.726Z,17.90
2018-08-28T04:04:57.462Z,16.43
2018-08-28T04:07:38.162Z,16.33
2018-08-28T04:10:19.661Z,22.03
2018-08-28T04:13:00.168Z,17.10
2018-08-28T04:15:40.761Z,15.37
2018-08-28T04:18:22.268Z,19.80
2018-08-28T04:21:03.381Z,20.97
2018-08-28T04:23:44.506Z,16.63
2018-08-28T04:26:26.189Z,24.97
2018-08-28T04:29:07.489Z,18.03
2018-08-28T04:31:48.713Z,24.97
2018-08-28T04:34:29.733Z,20.77
2018-08-28T04:37:11.402Z,22.03
2018-08-28T04:39:52.837Z,25.00
2018-08-28T04:42:34.260Z,20.97
2018-08-28T04:45:14.966Z,28.87
2018-08-28T04:47:56.477Z,18.97
2018-08-28T04:50:38.153Z,21.50
2018-08-28T04:53:20.284Z,17.87
2018-08-28T04:56:01.132Z,21.80
2018-08-28T04:58:41.765Z,19.27
2018-08-28T05:01:22.374Z,20.73
2018-08-28T05:04:02.992Z,25.97
2018-08-28T05:06:43.580Z,25.10
2018-08-28T05:09:24.918Z,38.50
2018-08-28T05:12:05.617Z,30.73
2018-08-28T05:14:46.136Z,42.20
2018-08-28T05:17:26.631Z,31.60
2018-08-28T05:20:07.285Z,23.43
2018-08-28T05:22:48.767Z,34.73
2018-08-28T05:25:29.422Z,28.90
2018-08-28T05:28:10.135Z,39.97
2018-08-28T05:30:50.800Z,35.60
2018-08-28T05:33:31.413Z,30.07
2018-08-28T05:36:12.976Z,34.57
2018-08-28T05:38:54.601Z,36.20
2018-08-28T05:41:36.177Z,39.00
2018-08-28T05:44:17.494Z,36.20
2018-08-28T05:46:59.014Z,53.33
2018-08-28T05:49:40.593Z,35.60
2018-08-28T05:52:22.085Z,38.93
2018-08-28T05:55:02.629Z,32.27
2018-08-28T05:57:43.155Z,34.77
2018-08-28T06:00:23.923Z,50.17
2018-08-28T06:03:04.703Z,39.77
2018-08-28T06:05:46.260Z,29.97
2018-08-28T06:08:27.714Z,41.07
2018-08-28T06:11:08.442Z,35.20
2018-08-28T06:13:49.562Z,36.40
2018-08-28T06:16:30.722Z,30.37
2018-08-28T06:19:12.141Z,28.50
2018-08-28T06:21:53.630Z,38.63
2018-08-28T06:24:35.018Z,25.03
2018-08-28T06:27:15.659Z,18.07
2018-08-28T06:29:56.240Z,21.43
2018-08-28T06:32:37.756Z,31.83
2018-08-28T06:35:18.529Z,27.30
2018-08-28T06:37:59.964Z,26.73
2018-08-28T06:40:40.628Z,37.27
2018-08-28T06:43:21.256Z,24.40
2018-08-28T06:46:02.346Z,21.23
2018-08-28T06:48:43.662Z,50.27
2018-08-28T06:51:24.956Z,35.43
2018-08-28T06:54:05.474Z,20.00
2018-08-28T06:56:46.053Z,24.00
2018-08-28T06:59:26.733Z,16.20
2018-08-28T07:02:08.118Z,21.60
2018-08-28T07:04:48.715Z,14.40
2018-08-28T07:07:30.117Z,40.83
2018-08-28T07:10:10.833Z,27.10
2018-08-28T07:12:52.532Z,22.80
2018-08-28T07:15:34.068Z,17.40
2018-08-28T07:18:15.567Z,29.83
2018-08-28T07:20:56.265Z,42.70
2018-08-28T07:23:36.964Z,16.30
2018-08-28T07:26:18.538Z,29.57
2018-08-28T07:28:59.091Z,42.33
2018-08-28T07:31:40.552Z,10.47
2018-08-28T07:34:21.137Z,14.63
2018-08-28T07:37:01.659Z,18.50
2018-08-28T07:39:42.214Z,15.77
2018-08-28T07:42:23.085Z,20.30
2018-08-28T07:45:04.347Z,18.43
2018-08-28T07:47:44.909Z,17.33
2018-08-28T07:50:25.514Z,16.63
2018-08-28T07:53:07.161Z,13.47
2018-08-28T07:55:48.567Z,18.57
2018-08-28T07:58:29.315Z,13.10
2018-08-28T08:01:10.725Z,22.30
2018-08-28T08:03:51.397Z,10.23
2018-08-28T08:06:32.655Z,12.57
2018-08-28T08:09:13.377Z,13.73
2018-08-28T08:11:53.896Z,10.97
2018-08-28T08:14:34.462Z,13.53
2018-08-28T08:17:16.890Z,12.80
2018-08-28T08:19:57.515Z,14.93
2018-08-28T08:22:38.178Z,19.70
2018-08-28T08:25:19.671Z,12.53
2018-08-28T08:28:01.323Z,19.73
2018-08-28T08:30:41.837Z,9.40
2018-08-28T08:33:22.498Z,14.10
2018-08-28T08:36:03.053Z,10.83
2018-08-28T08:38:43.626Z,11.47
2018-08-28T08:41:24.245Z,14.07
2018-08-28T08:44:04.921Z,11.70
2018-08-28T08:46:45.521Z,16.23
2018-08-28T08:49:26.180Z,13.37
2018-08-28T08:52:07.598Z,11.63
2018-08-28T08:54:48.196Z,17.23
2018-08-28T08:57:29.618Z,13.43
2018-08-28T09:00:10.285Z,17.43
2018-08-28T09:02:51.719Z,14.33
2018-08-28T09:05:32.358Z,10.93
2018-08-28T09:08:12.966Z,12.73
2018-08-28T09:10:53.660Z,10.90
2018-08-28T09:13:34.542Z,13.10
2018-08-28T09:16:16.157Z,20.73
2018-08-28T09:18:57.941Z,14.87
2018-08-28T09:21:38.957Z,12.00
2018-08-28T09:24:19.590Z,16.97
2018-08-28T09:27:00.598Z,16.60
2018-08-28T09:29:41.807Z,12.40
2018-08-28T09:32:23.300Z,13.57
2018-08-28T09:35:04.834Z,14.73
2018-08-28T09:37:46.308Z,12.13
2018-08-28T09:40:27.755Z,12.37
2018-08-28T09:43:08.368Z,15.70
2018-08-28T09:45:49.794Z,16.57
2018-08-28T09:48:30.368Z,15.27
2018-08-28T09:51:11.246Z,18.73
2018-08-28T09:53:52.396Z,10.60
2018-08-28T09:56:32.981Z,9.50
2018-08-28T09:59:14.313Z,10.03
2018-08-28T10:01:55.189Z,15.07
2018-08-28T10:04:36.661Z,17.47
2018-08-28T10:07:17.267Z,11.80
2018-08-28T10:09:57.774Z,13.00
2018-08-28T10:12:38.431Z,13.63
2018-08-28T10:15:19.042Z,15.77
2018-08-28T10:18:00.467Z,13.13
2018-08-28T10:20:41.021Z,18.87
2018-08-28T10:23:22.528Z,12.57
2018-08-28T10:26:03.882Z,13.20
2018-08-28T10:28:44.564Z,15.93
2018-08-28T10:31:25.583Z,9.33
2018-08-28T10:34:06.482Z,11.10
2018-08-28T10:36:47.945Z,15.40
2018-08-28T10:39:28.471Z,12.93
2018-08-28T10:42:09.229Z,16.70
2018-08-28T10:44:49.802Z,13.70
2018-08-28T10:47:30.550Z,16.63
2018-08-28T10:50:11.891Z,14.00
2018-08-28T10:52:52.536Z,12.23
2018-08-28T10:55:33.353Z,11.47
2018-08-28T10:58:14.919Z,18.47
2018-08-28T11:00:55.427Z,9.20
2018-08-28T11:03:35.927Z,10.80
2018-08-28T11:06:16.753Z,11.33
2018-08-28T11:08:58.148Z,14.40
2018-08-28T11:11:38.772Z,9.13
2018-08-28T11:14:19.484Z,9.80
2018-08-28T11:17:00.022Z,15.80
2018-08-28T11:19:40.830Z,21.07
2018-08-28T11:22:22.367Z,15.03
2018-08-28T11:25:03.974Z,11.93
2018-08-28T11:27:45.131Z,16.33
2018-08-28T11:30:26.065Z,16.47
2018-08-28T11:33:07.469Z,14.33
2018-08-28T11:35:48.088Z,10.70
2018-08-28T11:38:29.733Z,11.57
2018-08-28T11:41:10.275Z,22.43
2018-08-28T11:43:50.918Z,9.40
2018-08-28T11:46:31.556Z,17.00
2018-08-28T11:49:12.497Z,9.70
2018-08-28T11:51:54.181Z,19.83
2018-08-28T11:54:35.271Z,13.27
2018-08-28T11:57:16.064Z,11.07
2018-08-28T11:59:57.485Z,11.10
2018-08-28T12:02:38.053Z,9.70
2018-08-28T12:05:18.724Z,8.80
2018-08-28T12:08:00.311Z,12.50
2018-08-28T12:10:41.711Z,17.33
2018-08-28T12:13:23.205Z,13.13
2018-08-28T12:16:03.862Z,18.10
2018-08-28T12:18:44.445Z,10.30
2018-08-28T12:24:42.384Z,14.10
2018-08-28T12:27:23.505Z,11.40
2018-08-28T12:30:04.143Z,11.70
2018-08-28T12:32:45.522Z,11.73
2018-08-28T12:35:26.289Z,8.40
2018-08-28T12:38:07.016Z,7.90
2018-08-28T12:40:47.671Z,29.50
2018-08-28T12:43:29.141Z,11.93
2018-08-28T12:46:09.995Z,8.57
2018-08-28T12:48:51.465Z,10.50
2018-08-28T12:51:32.630Z,12.73
2018-08-28T12:54:13.667Z,12.70
2018-08-28T12:56:55.137Z,12.10
2018-08-28T12:59:35.870Z,14.57
2018-08-28T13:02:16.716Z,13.97
2018-08-28T13:04:57.200Z,17.90
2018-08-28T13:07:38.033Z,10.30
2018-08-28T13:10:18.543Z,14.77
2018-08-28T13:12:59.206Z,19.23
2018-08-28T13:15:39.874Z,15.93
2018-08-28T13:18:20.720Z,13.77
2018-08-28T13:21:02.294Z,9.33
2018-08-28T13:23:43.786Z,18.50
2018-08-28T13:26:25.274Z,12.10
2018-08-28T13:29:05.880Z,11.83
2018-08-28T13:31:46.427Z,12.93
2018-08-28T13:34:27.038Z,10.50
2018-08-28T13:37:07.797Z,15.03
2018-08-28T13:39:49.250Z,12.90
2018-08-28T13:42:30.004Z,16.97
2018-08-28T13:45:10.689Z,16.13
2018-08-28T13:47:51.639Z,13.90
2018-08-28T13:50:32.948Z,13.90
2018-08-28T13:53:14.494Z,12.37
2018-08-28T13:55:55.034Z,14.17
2018-08-28T13:58:35.750Z,10.17
2018-08-28T14:01:16.345Z,13.43
2018-08-28T14:03:58.712Z,12.17
2018-08-28T14:06:39.422Z,16.43
2018-08-28T14:09:20.009Z,12.60
2018-08-28T14:12:00.703Z,9.00
2018-08-28T14:14:42.233Z,13.03
2018-08-28T14:17:23.757Z,8.93
2018-08-28T14:20:05.226Z,17.50
2018-08-28T14:22:45.800Z,10.90
2018-08-28T14:25:27.624Z,9.53
2018-08-28T14:28:09.245Z,18.90
2018-08-28T14:30:51.828Z,15.23
2018-08-28T14:33:32.517Z,14.77
2018-08-28T14:36:13.136Z,9.60
2018-08-28T14:38:54.594Z,17.20
2018-08-28T14:41:35.137Z,22.10
2018-08-28T14:44:15.803Z,10.43
2018-08-28T14:46:57.405Z,12.70
2018-08-28T14:49:38.914Z,13.80
2018-08-28T14:52:19.459Z,12.70
2018-08-28T14:55:00.425Z,17.50
2018-08-28T14:57:42.377Z,17.17
2018-08-28T15:00:23.373Z,16.73
2018-08-28T15:03:03.997Z,23.33
2018-08-28T15:05:44.706Z,13.37
2018-08-28T15:08:26.266Z,23.47
2018-08-28T15:11:06.960Z,10.00
2018-08-28T15:13:48.530Z,21.47
2018-08-28T15:16:30.196Z,14.40
2018-08-28T15:19:12.517Z,12.50
2018-08-28T15:21:53.173Z,11.47
2018-08-28T15:24:33.768Z,18.63
2018-08-28T15:27:14.546Z,17.77
2018-08-28T15:29:55.080Z,13.93
2018-08-28T15:32:36.651Z,13.30
2018-08-28T15:35:18.132Z,23.90
2018-08-28T15:37:59.794Z,19.87
2018-08-28T15:40:41.377Z,14.80
2018-08-28T15:43:21.890Z,13.20
2018-08-28T15:46:02.581Z,16.67
2018-08-28T15:48:44.149Z,17.33
2018-08-28T15:51:24.948Z,14.70
2018-08-28T15:54:06.438Z,12.57
2018-08-28T15:56:47.904Z,18.67
2018-08-28T15:59:30.223Z,14.17
2018-08-28T16:02:11.722Z,19.13
2018-08-28T16:04:52.737Z,22.80
2018-08-28T16:07:34.233Z,19.43
2018-08-28T16:10:15.661Z,13.23
2018-08-28T16:12:57.152Z,16.23
2018-08-28T16:15:37.757Z,15.43
2018-08-28T16:18:18.298Z,15.13
2018-08-28T16:20:59.298Z,13.10
2018-08-28T16:23:43.107Z,11.57
2018-08-28T16:26:24.160Z,12.40
2018-08-28T16:29:04.701Z,10.60
2018-08-28T16:31:45.325Z,15.50
2018-08-28T16:34:26.810Z,15.53
2018-08-28T16:37:07.509Z,15.50
2018-08-28T16:39:47.970Z,15.50
2018-08-28T16:42:28.637Z,14.60
2018-08-28T16:45:10.217Z,12.43
2018-08-28T16:47:50.761Z,13.20
2018-08-28T16:50:31.396Z,8.10
2018-08-28T16:53:12.053Z,16.07
2018-08-28T16:55:52.664Z,13.23
2018-08-28T16:58:34.123Z,17.00
2018-08-28T17:01:14.811Z,15.20
2018-08-28T17:03:55.444Z,16.53
2018-08-28T17:06:36.809Z,14.57
2018-08-28T17:09:17.377Z,15.00
2018-08-28T17:11:58.012Z,13.97
2018-08-28T17:14:38.710Z,18.90
2018-08-28T17:17:20.261Z,15.90
2018-08-28T17:20:00.785Z,13.90
2018-08-28T17:22:41.509Z,13.70
2018-08-28T17:25:22.925Z,24.17
2018-08-28T17:28:03.664Z,23.37
2018-08-28T17:30:45.218Z,15.67
2018-08-28T17:33:26.757Z,18.60
2018-08-28T17:36:07.593Z,15.03
2018-08-28T17:38:49.123Z,14.07
2018-08-28T17:41:29.787Z,20.23
2018-08-28T17:44:10.450Z,13.73
2018-08-28T17:46:51.938Z,18.93
2018-08-28T17:49:32.529Z,15.70
2018-08-28T17:52:13.273Z,28.00
2018-08-28T17:54:53.932Z,37.47
2018-08-28T17:57:34.501Z,16.43
2018-08-28T18:00:15.149Z,25.33
2018-08-28T18:02:56.500Z,26.13
2018-08-28T18:05:37.189Z,17.90
2018-08-28T18:08:17.834Z,11.60
2018-08-28T18:10:58.487Z,17.23
2018-08-28T18:13:39.093Z,16.13
2018-08-28T18:16:19.845Z,13.80
2018-08-28T18:19:01.903Z,15.87
2018-08-28T18:21:42.973Z,21.87
2018-08-28T18:24:23.632Z,21.63
2018-08-28T18:27:05.139Z,17.00
2018-08-28T18:29:45.989Z,25.57
2018-08-28T18:32:27.274Z,11.17
2018-08-28T18:35:07.894Z,25.13
2018-08-28T18:37:49.960Z,20.20
2018-08-28T18:40:31.149Z,21.20
2018-08-28T18:43:13.114Z,21.83
2018-08-28T18:45:54.218Z,29.13
2018-08-28T18:48:34.981Z,11.87
2018-08-28T18:51:16.391Z,11.43
2018-08-28T18:53:58.593Z,17.50
2018-08-28T18:56:39.546Z,15.37
2018-08-28T18:59:21.045Z,18.20
2018-08-28T19:02:01.643Z,12.13
2018-08-28T19:04:42.373Z,22.30
2018-08-28T19:07:23.925Z,18.33
2018-08-28T19:10:04.594Z,16.50
2018-08-28T19:12:45.213Z,19.07
2018-08-28T19:15:25.830Z,19.20
2018-08-28T19:18:06.455Z,16.73
2018-08-28T19:20:47.129Z,17.00
2018-08-28T19:23:27.797Z,24.53
2018-08-28T19:26:08.608Z,23.43
2018-08-28T19:28:49.159Z,23.20
2018-08-28T19:31:30.665Z,18.30
2018-08-28T19:34:11.659Z,14.60
2018-08-28T19:36:53.724Z,31.27
2018-08-28T19:39:34.697Z,18.30
2018-08-28T19:42:16.428Z,17.43
2018-08-28T19:44:57.829Z,19.70
2018-08-28T19:47:39.501Z,23.63
2018-08-28T19:50:20.938Z,19.17
2018-08-28T19:53:01.606Z,31.10
2018-08-28T19:55:42.171Z,22.30
2018-08-28T19:58:23.113Z,18.10
2018-08-28T20:01:04.647Z,17.50
2018-08-28T20:03:46.006Z,17.03
2018-08-28T20:06:27.722Z,20.80
2018-08-28T20:09:09.165Z,22.30
2018-08-28T20:11:50.579Z,18.90
2018-08-28T20:14:31.978Z,16.60
2018-08-28T20:17:12.700Z,23.70
2018-08-28T20:19:53.373Z,29.33
2018-08-28T20:22:34.026Z,12.97
2018-08-28T20:25:15.510Z,26.17
2018-08-28T20:27:57.006Z,15.70
2018-08-28T20:30:38.542Z,22.67
2018-08-28T20:33:20.019Z,20.43
2018-08-28T20:36:00.681Z,16.47
2018-08-28T20:38:42.156Z,11.87
2018-08-28T20:41:23.184Z,16.60
2018-08-28T20:44:04.426Z,24.50
2018-08-28T20:46:44.978Z,22.83
2018-08-28T20:49:25.625Z,16.97
2018-08-28T20:52:06.406Z,17.67
2018-08-28T20:54:47.872Z,20.40
2018-08-28T20:57:29.425Z,15.00
2018-08-28T21:00:10.854Z,21.57
2018-08-28T21:02:51.548Z,16.37
2018-08-28T21:05:32.129Z,24.80
2018-08-28T21:08:12.677Z,19.87
2018-08-28T21:10:53.402Z,17.80
2018-08-28T21:13:33.989Z,17.37
2018-08-28T21:16:14.550Z,28.67
2018-08-28T21:18:55.188Z,21.17
2018-08-28T21:21:37.102Z,24.90
2018-08-28T21:24:18.300Z,35.37
2018-08-28T21:26:58.907Z,27.43
2018-08-28T21:29:39.507Z,14.30
2018-08-28T21:32:20.053Z,21.73
2018-08-28T21:35:00.790Z,21.13
2018-08-28T21:37:41.533Z,18.50
2018-08-28T21:40:22.966Z,21.30
2018-08-28T21:43:04.869Z,22.00
2018-08-28T21:45:46.415Z,56.23
2018-08-28T21:48:27.947Z,32.37
2018-08-28T21:51:08.633Z,38.07
2018-08-28T21:53:50.186Z,24.27
2018-08-28T21:56:31.663Z,27.17
2018-08-28T21:59:12.250Z,26.30
2018-08-28T22:01:52.843Z,30.33
2018-08-28T22:04:34.326Z,22.63
2018-08-28T22:07:20.634Z,18.40
2018-08-28T22:10:01.276Z,26.53
2018-08-28T22:12:42.736Z,37.37
2018-08-28T22:15:23.452Z,35.23
2018-08-28T22:18:04.104Z,26.07
2018-08-28T22:20:49.705Z,23.10
2018-08-28T22:23:30.289Z,32.53
2018-08-28T22:26:10.925Z,19.70
2018-08-28T22:28:51.641Z,15.40
2018-08-28T22:31:32.215Z,23.27
2018-08-28T22:34:12.897Z,21.73
2018-08-28T22:36:53.453Z,29.10
2018-08-28T22:39:35.234Z,17.37
2018-08-28T22:42:16.477Z,20.97
2018-08-28T22:44:57.923Z,24.33
2018-08-28T22:47:38.557Z,28.37
2018-08-28T22:50:20.063Z,11.60
2018-08-28T22:53:01.028Z,38.73
2018-08-28T22:55:42.348Z,22.10
2018-08-28T22:58:23.806Z,18.33
2018-08-28T23:01:05.041Z,22.87
2018-08-28T23:03:46.301Z,15.77
2018-08-28T23:06:27.821Z,21.83
2018-08-28T23:09:09.594Z,23.53
2018-08-28T23:11:50.756Z,19.30
2018-08-28T23:14:31.392Z,17.03
2018-08-28T23:17:12.038Z,22.73
2018-08-28T23:19:53.489Z,15.77
2018-08-28T23:22:34.222Z,17.47
2018-08-28T23:25:15.686Z,12.60
2018-08-28T23:27:56.414Z,19.30
2018-08-28T23:30:37.422Z,18.03
2018-08-28T23:33:18.561Z,22.00
2018-08-28T23:36:00.244Z,15.30
2018-08-28T23:38:41.729Z,13.90
2018-08-28T23:41:22.309Z,11.73
2018-08-28T23:44:03.032Z,23.93
2018-08-28T23:46:44.429Z,12.13
2018-08-28T23:49:25.037Z,18.70
2018-08-28T23:52:05.784Z,13.77
2018-08-28T23:54:47.764Z,19.13
2018-08-28T23:57:28.769Z,16.03
